createdAt,value
2022-07-29T00:00:11.108Z,19.15
2022-07-29T00:01:19.202Z,19.19
2022-07-29T00:02:11.167Z,19.16
2022-07-29T00:03:11.239Z,19.17
2022-07-29T00:04:11.639Z,19.07
2022-07-29T00:05:11.255Z,19.15
2022-07-29T00:06:11.286Z,19.16
2022-07-29T00:07:11.326Z,19.12
2022-07-29T00:08:12.667Z,19.17
2022-07-29T00:09:11.390Z,19.27
2022-07-29T00:10:11.401Z,19.27
2022-07-29T00:11:11.430Z,19.27
2022-07-29T00:12:11.470Z,19.19
2022-07-29T00:13:11.502Z,19.15
2022-07-29T00:14:11.518Z,19.17
2022-07-29T00:15:11.547Z,19.15
2022-07-29T00:16:11.629Z,19.19
2022-07-29T00:17:11.605Z,19.20
2022-07-29T00:18:11.635Z,19.28
2022-07-29T00:19:11.664Z,19.27
2022-07-29T00:20:11.690Z,19.32
2022-07-29T00:21:11.722Z,19.25
2022-07-29T00:22:11.751Z,19.30
2022-07-29T00:23:13.609Z,19.32
2022-07-29T00:24:11.924Z,19.20
2022-07-29T00:25:11.841Z,19.19
2022-07-29T00:26:11.869Z,19.15
2022-07-29T00:27:11.915Z,19.19
2022-07-29T00:28:11.927Z,19.24
2022-07-29T00:30:12.002Z,19.16
2022-07-29T00:31:12.136Z,19.12
2022-07-29T00:32:12.044Z,19.16
2022-07-29T00:33:12.074Z,19.15
2022-07-29T00:34:12.233Z,19.13
2022-07-29T00:35:12.133Z,19.16
2022-07-29T00:36:12.160Z,19.09
2022-07-29T00:37:12.190Z,19.13
2022-07-29T00:38:12.221Z,19.12
2022-07-29T00:39:12.248Z,19.17
2022-07-29T00:40:12.292Z,19.16
2022-07-29T00:41:12.309Z,19.16
2022-07-29T00:42:12.338Z,19.16
2022-07-29T00:43:12.368Z,19.20
2022-07-29T00:44:12.610Z,19.20
2022-07-29T00:45:12.423Z,19.12
2022-07-29T00:46:12.502Z,19.19
2022-07-29T00:48:05.055Z,19.17
2022-07-29T00:49:05.148Z,19.16
2022-07-29T00:50:05.114Z,18.99
2022-07-29T00:51:05.149Z,19.13
2022-07-29T00:52:05.174Z,19.06
2022-07-29T00:53:05.204Z,19.05
2022-07-29T00:54:05.231Z,19.15
2022-07-29T00:55:08.656Z,19.02
2022-07-29T00:56:05.296Z,19.07
2022-07-29T00:57:06.576Z,19.09
2022-07-29T00:58:05.343Z,18.94
2022-07-29T00:59:05.385Z,18.94
2022-07-29T01:00:05.404Z,18.96
2022-07-29T01:01:05.484Z,18.99
2022-07-29T01:02:05.582Z,18.97
2022-07-29T01:03:05.492Z,18.91
2022-07-29T01:04:05.527Z,18.89
2022-07-29T01:05:05.563Z,19.00
2022-07-29T01:06:05.575Z,18.87
2022-07-29T01:07:05.615Z,18.90
2022-07-29T01:08:05.633Z,18.87
2022-07-29T01:09:05.676Z,18.86
2022-07-29T01:10:05.696Z,18.91
2022-07-29T01:11:06.944Z,18.87
2022-07-29T01:12:05.760Z,18.87
2022-07-29T01:13:05.789Z,18.91
2022-07-29T01:14:05.816Z,18.87
2022-07-29T01:15:05.834Z,18.81
2022-07-29T01:16:05.924Z,18.84
2022-07-29T01:17:05.909Z,18.78
2022-07-29T01:18:05.918Z,18.72
2022-07-29T01:19:05.949Z,18.76
2022-07-29T01:20:05.987Z,18.75
2022-07-29T01:21:06.209Z,18.75
2022-07-29T01:22:06.033Z,18.82
2022-07-29T01:23:06.067Z,18.84
2022-07-29T01:24:06.091Z,18.75
2022-07-29T01:25:06.126Z,18.79
2022-07-29T01:26:06.154Z,18.76
2022-07-29T01:27:06.181Z,18.75
2022-07-29T01:28:06.208Z,18.81
2022-07-29T01:29:08.310Z,18.82
2022-07-29T01:30:06.361Z,18.84
2022-07-29T01:31:06.349Z,18.82
2022-07-29T01:32:06.433Z,18.84
2022-07-29T01:33:06.356Z,18.84
2022-07-29T01:34:06.382Z,18.86
2022-07-29T01:35:06.414Z,18.84
2022-07-29T01:36:06.440Z,18.86
2022-07-29T01:37:06.471Z,18.87
2022-07-29T01:38:06.501Z,18.82
2022-07-29T01:39:06.531Z,18.79
2022-07-29T01:40:06.640Z,18.78
2022-07-29T01:41:06.588Z,18.79
2022-07-29T01:42:06.616Z,18.82
2022-07-29T01:43:06.648Z,18.76
2022-07-29T01:44:06.674Z,18.84
2022-07-29T01:45:06.716Z,18.74
2022-07-29T01:46:06.836Z,18.86
2022-07-29T01:47:06.768Z,18.79
2022-07-29T01:48:06.792Z,18.86
2022-07-29T01:49:06.909Z,18.82
2022-07-29T01:50:06.902Z,18.89
2022-07-29T01:51:06.880Z,18.89
2022-07-29T01:52:06.906Z,18.87
2022-07-29T01:53:06.936Z,18.87
2022-07-29T01:54:06.962Z,18.93
2022-07-29T01:55:07.038Z,18.94
2022-07-29T01:56:07.025Z,18.96
2022-07-29T01:57:07.054Z,18.94
2022-07-29T01:58:07.083Z,19.06
2022-07-29T01:59:07.112Z,18.97
2022-07-29T02:00:07.138Z,18.93
2022-07-29T02:01:07.175Z,18.86
2022-07-29T02:02:07.332Z,18.87
2022-07-29T02:03:07.229Z,18.91
2022-07-29T02:04:07.255Z,18.93
2022-07-29T02:05:07.301Z,18.87
2022-07-29T02:06:07.313Z,18.93
2022-07-29T02:07:07.350Z,18.90
2022-07-29T02:08:07.371Z,18.90
2022-07-29T02:09:08.613Z,18.84
2022-07-29T02:10:07.437Z,18.87
2022-07-29T02:11:07.462Z,18.84
2022-07-29T02:12:07.487Z,18.78
2022-07-29T02:13:07.519Z,18.74
2022-07-29T02:14:07.546Z,18.81
2022-07-29T02:15:07.580Z,18.82
2022-07-29T02:16:07.722Z,18.81
2022-07-29T02:17:07.638Z,18.76
2022-07-29T02:18:07.667Z,18.72
2022-07-29T02:19:07.697Z,18.75
2022-07-29T02:20:07.721Z,18.75
2022-07-29T02:21:15.101Z,18.74
2022-07-29T02:22:07.779Z,18.72
2022-07-29T02:23:07.812Z,18.71
2022-07-29T02:24:07.838Z,18.68
2022-07-29T02:25:07.868Z,18.71
2022-07-29T02:26:07.899Z,18.65
2022-07-29T02:27:50.676Z,18.60
2022-07-29T02:28:50.505Z,18.49
2022-07-29T02:29:50.543Z,18.56
2022-07-29T02:30:50.611Z,18.50
2022-07-29T02:35:34.650Z,18.32
2022-07-29T02:36:34.138Z,18.29
2022-07-29T02:37:34.158Z,18.34
2022-07-29T02:38:34.193Z,18.29
2022-07-29T02:39:34.218Z,18.26
2022-07-29T02:40:34.247Z,18.26
2022-07-29T02:41:34.286Z,18.26
2022-07-29T02:42:34.304Z,18.14
2022-07-29T02:43:34.331Z,18.16
2022-07-29T02:44:34.858Z,18.13
2022-07-29T02:45:34.390Z,18.10
2022-07-29T02:46:34.441Z,18.13
2022-07-29T02:47:41.239Z,18.11
2022-07-29T02:48:34.477Z,17.98
2022-07-29T02:49:34.504Z,18.01
2022-07-29T02:50:34.534Z,17.99
2022-07-29T02:51:43.508Z,18.03
2022-07-29T02:52:34.592Z,17.98
2022-07-29T02:53:34.619Z,17.99
2022-07-29T02:54:34.652Z,17.98
2022-07-29T02:55:34.678Z,17.87
2022-07-29T02:56:34.709Z,17.99
2022-07-29T02:57:34.737Z,17.86
2022-07-29T02:58:34.771Z,17.77
2022-07-29T02:59:34.792Z,17.87
2022-07-29T03:00:34.822Z,17.86
2022-07-29T03:01:34.875Z,17.84
2022-07-29T03:02:34.883Z,17.69
2022-07-29T03:03:34.908Z,17.81
2022-07-29T03:04:34.973Z,17.79
2022-07-29T03:05:34.966Z,17.76
2022-07-29T03:06:38.705Z,17.71
2022-07-29T03:07:35.022Z,17.77
2022-07-29T03:08:35.053Z,17.83
2022-07-29T03:09:35.080Z,17.84
2022-07-29T03:10:35.114Z,17.81
2022-07-29T03:11:42.452Z,17.84
2022-07-29T03:12:35.169Z,17.80
2022-07-29T03:13:35.195Z,17.73
2022-07-29T03:14:35.225Z,17.79
2022-07-29T03:15:35.331Z,17.74
2022-07-29T03:16:39.407Z,17.74
2022-07-29T03:17:35.313Z,17.73
2022-07-29T03:18:35.344Z,17.73
2022-07-29T03:19:35.366Z,17.76
2022-07-29T03:20:35.398Z,17.77
2022-07-29T03:21:35.425Z,17.77
2022-07-29T03:22:35.457Z,17.68
2022-07-29T03:23:36.973Z,17.77
2022-07-29T03:24:35.513Z,17.74
2022-07-29T03:25:35.542Z,17.73
2022-07-29T03:26:35.570Z,17.81
2022-07-29T03:27:35.597Z,17.71
2022-07-29T03:29:18.177Z,17.81
2022-07-29T03:30:22.071Z,17.77
2022-07-29T03:31:18.345Z,17.74
2022-07-29T03:32:23.809Z,17.88
2022-07-29T03:33:18.294Z,17.86
2022-07-29T03:34:18.669Z,17.92
2022-07-29T03:35:18.350Z,17.92
2022-07-29T03:36:18.379Z,17.96
2022-07-29T03:37:18.407Z,17.96
2022-07-29T03:38:18.437Z,17.96
2022-07-29T03:39:18.465Z,17.96
2022-07-29T03:40:18.495Z,17.99
2022-07-29T03:41:18.521Z,17.98
2022-07-29T03:42:18.552Z,17.99
2022-07-29T03:43:18.579Z,18.11
2022-07-29T03:44:18.900Z,18.23
2022-07-29T03:45:18.638Z,18.23
2022-07-29T03:46:18.891Z,18.36
2022-07-29T03:47:18.694Z,18.34
2022-07-29T03:48:18.724Z,18.39
2022-07-29T03:49:18.860Z,18.45
2022-07-29T03:50:18.783Z,18.50
2022-07-29T03:51:18.811Z,18.53
2022-07-29T03:52:18.843Z,18.51
2022-07-29T03:53:18.867Z,18.63
2022-07-29T03:54:19.319Z,18.66
2022-07-29T03:55:18.936Z,18.63
2022-07-29T03:56:18.958Z,18.76
2022-07-29T03:57:18.984Z,18.84
2022-07-29T03:58:19.013Z,18.89
2022-07-29T03:59:19.041Z,18.89
2022-07-29T04:00:19.074Z,18.93
2022-07-29T04:01:19.141Z,19.00
2022-07-29T04:02:22.917Z,18.97
2022-07-29T04:03:19.219Z,19.00
2022-07-29T04:04:19.798Z,19.02
2022-07-29T04:05:19.212Z,19.05
2022-07-29T04:06:19.242Z,19.13
2022-07-29T04:07:19.270Z,19.06
2022-07-29T04:08:19.301Z,19.09
2022-07-29T04:09:19.329Z,19.13
2022-07-29T04:10:28.323Z,19.16
2022-07-29T04:11:19.387Z,19.10
2022-07-29T04:12:19.415Z,19.05
2022-07-29T04:13:19.443Z,19.07
2022-07-29T04:14:19.525Z,19.07
2022-07-29T04:15:19.500Z,19.12
2022-07-29T04:16:19.591Z,19.13
2022-07-29T04:17:19.557Z,19.19
2022-07-29T04:18:19.590Z,19.16
2022-07-29T04:19:19.621Z,19.23
2022-07-29T04:20:19.646Z,19.25
2022-07-29T04:21:19.672Z,19.20
2022-07-29T04:22:19.703Z,19.28
2022-07-29T04:23:19.733Z,19.13
2022-07-29T04:24:20.095Z,19.30
2022-07-29T04:25:19.788Z,19.27
2022-07-29T04:26:19.819Z,19.28
2022-07-29T04:27:19.846Z,19.28
2022-07-29T04:28:19.875Z,19.24
2022-07-29T04:29:19.902Z,19.30
2022-07-29T04:30:19.933Z,19.30
2022-07-29T04:31:25.283Z,19.34
2022-07-29T04:32:19.990Z,19.31
2022-07-29T04:33:20.018Z,19.31
2022-07-29T04:34:20.639Z,19.27
2022-07-29T04:35:20.078Z,19.32
2022-07-29T04:42:12.633Z,19.28
2022-07-29T04:43:13.202Z,19.30
2022-07-29T04:44:12.906Z,19.34
2022-07-29T04:45:12.721Z,19.35
2022-07-29T04:46:12.775Z,19.38
2022-07-29T04:47:12.782Z,19.42
2022-07-29T04:48:12.806Z,19.47
2022-07-29T04:49:12.920Z,19.47
2022-07-29T04:50:12.863Z,19.46
2022-07-29T04:51:12.895Z,19.47
2022-07-29T04:52:12.920Z,19.47
2022-07-29T04:53:12.952Z,19.40
2022-07-29T04:54:13.243Z,19.42
2022-07-29T04:55:13.008Z,19.43
2022-07-29T04:56:13.035Z,19.40
2022-07-29T04:57:13.065Z,19.42
2022-07-29T04:58:13.093Z,19.43
2022-07-29T04:59:13.267Z,19.43
2022-07-29T05:00:13.151Z,19.50
2022-07-29T05:01:13.252Z,19.52
2022-07-29T05:02:13.248Z,19.46
2022-07-29T05:03:13.377Z,19.60
2022-07-29T05:04:13.751Z,19.52
2022-07-29T05:05:13.290Z,19.63
2022-07-29T05:06:17.351Z,19.57
2022-07-29T05:07:13.346Z,19.57
2022-07-29T05:08:13.372Z,19.60
2022-07-29T05:09:13.402Z,19.55
2022-07-29T05:10:13.437Z,19.55
2022-07-29T05:11:16.932Z,19.65
2022-07-29T05:12:13.501Z,19.64
2022-07-29T05:13:13.518Z,19.57
2022-07-29T05:14:14.012Z,19.65
2022-07-29T05:15:13.578Z,19.61
2022-07-29T05:16:13.729Z,19.74
2022-07-29T05:17:13.635Z,19.75
2022-07-29T05:18:13.670Z,19.71
2022-07-29T05:19:14.540Z,19.74
2022-07-29T05:20:13.721Z,19.65
2022-07-29T05:21:13.749Z,19.75
2022-07-29T05:22:13.778Z,19.68
2022-07-29T05:23:13.933Z,19.72
2022-07-29T05:24:14.342Z,19.80
2022-07-29T05:25:13.868Z,19.82
2022-07-29T05:26:13.897Z,19.80
2022-07-29T05:27:13.926Z,19.75
2022-07-29T05:28:13.955Z,19.83
2022-07-29T05:29:44.863Z,19.82
2022-07-29T05:30:14.012Z,19.83
2022-07-29T05:31:14.113Z,19.92
2022-07-29T05:32:14.070Z,19.89
2022-07-29T05:33:34.943Z,19.89
2022-07-29T05:34:14.435Z,20.04
2022-07-29T05:35:14.160Z,20.07
2022-07-29T05:36:14.187Z,20.15
2022-07-29T05:37:14.218Z,20.30
2022-07-29T05:38:14.246Z,20.30
2022-07-29T05:39:14.275Z,20.42
2022-07-29T05:40:14.305Z,20.44
2022-07-29T05:41:14.334Z,20.44
2022-07-29T05:42:14.366Z,20.41
2022-07-29T05:43:14.397Z,20.41
2022-07-29T05:44:14.762Z,20.49
2022-07-29T05:45:14.454Z,20.54
2022-07-29T05:46:14.538Z,20.64
2022-07-29T05:47:14.512Z,20.64
2022-07-29T05:48:14.541Z,20.58
2022-07-29T05:49:26.851Z,20.58
2022-07-29T05:50:14.599Z,20.66
2022-07-29T05:51:14.629Z,20.58
2022-07-29T05:52:14.659Z,20.61
2022-07-29T05:53:19.404Z,20.61
2022-07-29T05:54:14.988Z,20.83
2022-07-29T05:55:14.748Z,20.83
2022-07-29T05:56:14.775Z,20.88
2022-07-29T05:57:14.806Z,20.98
2022-07-29T05:58:14.836Z,20.97
2022-07-29T05:59:18.028Z,20.96
2022-07-29T06:04:24.135Z,20.72
2022-07-29T06:05:24.132Z,20.78
2022-07-29T06:06:24.160Z,20.78
2022-07-29T06:07:24.193Z,20.93
2022-07-29T06:08:24.220Z,21.09
2022-07-29T06:09:24.253Z,21.12
2022-07-29T06:10:27.021Z,21.15
2022-07-29T06:11:24.310Z,21.22
2022-07-29T06:12:24.342Z,21.41
2022-07-29T06:13:24.371Z,21.51
2022-07-29T06:14:24.401Z,21.56
2022-07-29T06:15:24.429Z,21.55
2022-07-29T06:16:29.728Z,21.77
2022-07-29T06:17:24.491Z,21.85
2022-07-29T06:18:24.672Z,21.77
2022-07-29T06:19:24.549Z,21.94
2022-07-29T06:20:27.258Z,21.85
2022-07-29T06:21:24.611Z,21.92
2022-07-29T06:22:24.640Z,21.94
2022-07-29T06:23:24.671Z,22.08
2022-07-29T06:24:24.699Z,22.00
2022-07-29T06:25:24.734Z,21.97
2022-07-29T06:26:26.365Z,21.86
2022-07-29T06:27:24.791Z,21.89
2022-07-29T06:28:24.820Z,21.85
2022-07-29T06:29:24.860Z,21.77
2022-07-29T06:30:24.951Z,21.66
2022-07-29T06:31:25.030Z,21.61
2022-07-29T06:32:27.402Z,21.70
2022-07-29T06:33:24.973Z,21.77
2022-07-29T06:34:25.001Z,21.82
2022-07-29T06:35:38.765Z,21.86
2022-07-29T06:36:25.191Z,21.97
2022-07-29T06:37:25.096Z,21.89
2022-07-29T06:38:30.973Z,21.80
2022-07-29T06:39:25.155Z,21.78
2022-07-29T06:40:25.184Z,21.64
2022-07-29T06:41:25.227Z,21.73
2022-07-29T06:42:25.246Z,21.56
2022-07-29T06:43:25.275Z,21.61
2022-07-29T06:44:25.305Z,21.51
2022-07-29T06:45:25.337Z,21.49
2022-07-29T06:46:25.575Z,21.40
2022-07-29T06:47:25.399Z,21.41
2022-07-29T06:48:25.426Z,21.40
2022-07-29T06:49:25.580Z,21.46
2022-07-29T06:50:25.557Z,21.46
2022-07-29T06:51:25.519Z,21.40
2022-07-29T06:52:25.548Z,21.46
2022-07-29T06:53:25.580Z,21.43
2022-07-29T06:54:25.610Z,21.51
2022-07-29T06:55:25.694Z,21.51
2022-07-29T06:56:25.671Z,21.52
2022-07-29T06:57:25.707Z,21.53
2022-07-29T06:58:25.738Z,21.51
2022-07-29T06:59:33.446Z,21.41
2022-07-29T07:00:25.871Z,21.37
2022-07-29T07:01:25.898Z,21.30
2022-07-29T07:02:25.903Z,21.25
2022-07-29T07:03:25.884Z,21.22
2022-07-29T07:04:25.912Z,21.15
2022-07-29T07:05:25.943Z,21.30
2022-07-29T07:06:25.971Z,21.49
2022-07-29T07:07:26.005Z,21.55
2022-07-29T07:08:26.034Z,21.48
2022-07-29T07:09:26.065Z,21.56
2022-07-29T07:10:26.093Z,21.66
2022-07-29T07:11:26.123Z,21.70
2022-07-29T07:12:26.153Z,21.78
2022-07-29T07:13:26.184Z,21.83
2022-07-29T07:14:26.213Z,21.90
2022-07-29T07:15:39.142Z,22.02
2022-07-29T07:16:26.335Z,22.12
2022-07-29T07:17:26.306Z,22.15
2022-07-29T07:18:26.335Z,22.15
2022-07-29T07:19:26.365Z,22.12
2022-07-29T07:20:26.396Z,22.07
2022-07-29T07:21:26.428Z,21.96
2022-07-29T07:22:26.456Z,22.02
2022-07-29T07:23:26.490Z,22.09
2022-07-29T07:24:26.516Z,21.93
2022-07-29T07:25:26.548Z,22.00
2022-07-29T07:26:26.578Z,22.14
2022-07-29T07:27:26.608Z,22.09
2022-07-29T07:28:26.640Z,22.18
2022-07-29T07:29:26.670Z,22.26
2022-07-29T07:30:26.706Z,22.29
2022-07-29T07:31:26.793Z,22.49
2022-07-29T07:32:26.866Z,22.61
2022-07-29T07:33:26.792Z,22.76
2022-07-29T07:34:29.706Z,22.88
2022-07-29T07:35:26.856Z,22.99
2022-07-29T07:36:26.882Z,22.92
2022-07-29T07:37:26.915Z,22.96
2022-07-29T07:38:26.944Z,22.73
2022-07-29T07:39:26.978Z,22.76
2022-07-29T07:40:27.006Z,22.84
2022-07-29T07:41:27.036Z,22.86
2022-07-29T07:42:27.067Z,22.94
2022-07-29T07:43:27.096Z,22.91
2022-07-29T07:44:27.127Z,23.07
2022-07-29T07:45:27.242Z,23.03
2022-07-29T07:46:27.266Z,22.73
2022-07-29T07:47:27.840Z,22.52
2022-07-29T07:48:27.251Z,22.38
2022-07-29T07:49:27.342Z,22.24
2022-07-29T07:50:27.317Z,22.24
2022-07-29T07:51:27.346Z,22.30
2022-07-29T07:52:27.374Z,22.36
2022-07-29T07:53:27.406Z,22.27
2022-07-29T07:54:27.438Z,22.18
2022-07-29T07:55:27.467Z,22.22
2022-07-29T07:56:30.719Z,22.24
2022-07-29T07:57:27.529Z,22.18
2022-07-29T07:58:27.557Z,22.15
2022-07-29T07:59:27.590Z,22.20
2022-07-29T08:00:27.620Z,22.27
2022-07-29T08:01:27.740Z,22.26
2022-07-29T08:02:27.728Z,22.27
2022-07-29T08:03:27.712Z,22.36
2022-07-29T08:04:29.053Z,22.33
2022-07-29T08:05:27.775Z,22.24
2022-07-29T08:06:27.804Z,22.20
2022-07-29T08:07:27.836Z,22.30
2022-07-29T08:08:27.866Z,22.16
2022-07-29T08:09:29.866Z,22.14
2022-07-29T08:10:27.936Z,22.18
2022-07-29T08:11:27.957Z,22.20
2022-07-29T08:12:27.987Z,22.22
2022-07-29T08:13:28.021Z,22.23
2022-07-29T08:14:28.048Z,22.20
2022-07-29T08:15:28.079Z,22.29
2022-07-29T08:16:28.155Z,22.24
2022-07-29T08:17:28.142Z,22.30
2022-07-29T08:18:28.173Z,22.44
2022-07-29T08:19:28.208Z,22.39
2022-07-29T08:20:28.232Z,22.48
2022-07-29T08:21:28.263Z,22.57
2022-07-29T08:22:28.293Z,22.55
2022-07-29T08:23:45.488Z,22.51
2022-07-29T08:24:28.353Z,22.52
2022-07-29T08:25:28.390Z,22.55
2022-07-29T08:26:28.420Z,22.59
2022-07-29T08:27:44.461Z,22.64
2022-07-29T08:28:28.474Z,22.44
2022-07-29T08:29:28.509Z,22.46
2022-07-29T08:30:28.544Z,22.42
2022-07-29T08:31:28.637Z,22.36
2022-07-29T08:32:51.914Z,22.30
2022-07-29T08:33:28.631Z,22.24
2022-07-29T08:34:28.660Z,22.22
2022-07-29T08:35:33.364Z,22.24
2022-07-29T08:36:28.721Z,22.36
2022-07-29T08:37:28.760Z,22.49
2022-07-29T08:38:28.782Z,22.39
2022-07-29T08:39:28.814Z,22.55
2022-07-29T08:40:32.528Z,22.48
2022-07-29T08:41:28.875Z,22.61
2022-07-29T08:42:28.906Z,22.60
2022-07-29T08:43:28.960Z,22.59
2022-07-29T08:44:31.141Z,22.61
2022-07-29T08:45:29.043Z,22.61
2022-07-29T08:46:29.028Z,22.69
2022-07-29T08:47:29.060Z,22.52
2022-07-29T08:48:29.089Z,22.63
2022-07-29T08:49:29.208Z,22.51
2022-07-29T08:50:29.149Z,22.33
2022-07-29T08:51:29.181Z,22.26
2022-07-29T08:52:29.210Z,22.31
2022-07-29T08:53:29.243Z,22.36
2022-07-29T08:54:29.273Z,22.46
2022-07-29T08:55:29.303Z,22.55
2022-07-29T08:56:29.329Z,22.67
2022-07-29T08:57:29.366Z,22.73
2022-07-29T08:58:29.394Z,22.92
2022-07-29T08:59:29.424Z,22.88
2022-07-29T09:00:29.475Z,22.69
2022-07-29T09:01:36.273Z,22.94
2022-07-29T09:02:29.517Z,22.75
2022-07-29T09:03:29.588Z,22.73
2022-07-29T09:04:29.577Z,22.78
2022-07-29T09:05:29.612Z,22.76
2022-07-29T09:06:29.641Z,22.70
2022-07-29T09:07:34.574Z,22.76
2022-07-29T09:08:29.702Z,22.61
2022-07-29T09:09:29.732Z,22.79
2022-07-29T09:10:29.764Z,22.89
2022-07-29T09:11:29.795Z,23.18
2022-07-29T09:12:31.885Z,23.41
2022-07-29T09:13:29.856Z,23.62
2022-07-29T09:14:29.886Z,23.71
2022-07-29T09:15:29.916Z,23.85
2022-07-29T09:16:51.950Z,24.07
2022-07-29T09:17:30.016Z,24.09
2022-07-29T09:18:30.925Z,24.30
2022-07-29T09:19:30.041Z,25.05
2022-07-29T09:20:30.070Z,25.51
2022-07-29T09:21:30.104Z,25.71
2022-07-29T09:22:30.133Z,26.47
2022-07-29T09:23:30.266Z,26.90
2022-07-29T09:24:30.196Z,27.34
2022-07-29T09:26:30.262Z,27.43
2022-07-29T09:28:22.867Z,27.01
2022-07-29T09:29:22.903Z,26.84
2022-07-29T09:30:25.612Z,26.60
2022-07-29T09:31:23.027Z,26.30
2022-07-29T09:32:22.994Z,25.91
2022-07-29T09:33:23.028Z,25.63
2022-07-29T09:34:23.061Z,25.39
2022-07-29T09:35:23.101Z,25.30
2022-07-29T09:36:23.123Z,25.26
2022-07-29T09:37:23.159Z,25.23
2022-07-29T09:38:23.190Z,25.33
2022-07-29T09:39:23.238Z,25.75
2022-07-29T09:40:23.259Z,26.11
2022-07-29T09:41:23.289Z,26.56
2022-07-29T09:42:23.319Z,26.54
2022-07-29T09:43:23.360Z,26.78
2022-07-29T09:44:26.210Z,27.61
2022-07-29T09:45:23.417Z,27.84
2022-07-29T09:47:23.900Z,27.96
2022-07-29T09:49:23.615Z,28.88
2022-07-29T09:50:23.795Z,28.83
2022-07-29T09:51:37.884Z,28.95
2022-07-29T09:53:23.679Z,28.54
2022-07-29T09:54:23.716Z,28.05
2022-07-29T09:55:23.745Z,27.55
2022-07-29T09:56:23.784Z,27.34
2022-07-29T09:57:28.567Z,26.79
2022-07-29T09:58:23.848Z,26.59
2022-07-29T10:00:23.943Z,26.09
2022-07-29T10:01:23.984Z,25.97
2022-07-29T10:02:24.075Z,25.85
2022-07-29T10:03:24.054Z,25.96
2022-07-29T10:04:24.048Z,25.74
2022-07-29T10:05:24.083Z,25.70
2022-07-29T10:06:24.118Z,25.67
2022-07-29T10:07:24.152Z,25.56
2022-07-29T10:08:24.184Z,25.51
2022-07-29T10:09:24.218Z,25.23
2022-07-29T10:10:24.249Z,25.20
2022-07-29T10:11:24.286Z,25.24
2022-07-29T10:12:24.319Z,24.96
2022-07-29T10:13:24.352Z,24.90
2022-07-29T10:14:24.384Z,24.90
2022-07-29T10:15:24.419Z,24.92
2022-07-29T10:16:24.486Z,24.89
2022-07-29T10:17:24.486Z,25.02
2022-07-29T10:18:24.518Z,25.04
2022-07-29T10:19:24.553Z,24.97
2022-07-29T10:20:24.585Z,25.04
2022-07-29T10:21:36.032Z,25.01
2022-07-29T10:22:50.670Z,24.87
2022-07-29T10:23:24.682Z,24.85
2022-07-29T10:24:24.712Z,24.92
2022-07-29T10:25:24.748Z,24.82
2022-07-29T10:26:24.782Z,24.90
2022-07-29T10:27:24.813Z,24.87
2022-07-29T10:28:24.848Z,24.80
2022-07-29T10:29:24.898Z,24.83
2022-07-29T10:30:24.917Z,24.71
2022-07-29T10:31:25.022Z,24.82
2022-07-29T10:32:24.974Z,24.74
2022-07-29T10:33:25.009Z,24.70
2022-07-29T10:34:25.038Z,24.92
2022-07-29T10:35:25.087Z,25.15
2022-07-29T10:36:25.105Z,25.09
2022-07-29T10:37:25.137Z,25.17
2022-07-29T10:38:25.167Z,25.24
2022-07-29T10:39:25.204Z,25.27
2022-07-29T10:40:25.233Z,25.45
2022-07-29T10:41:25.267Z,25.88
2022-07-29T10:42:33.519Z,26.16
2022-07-29T10:43:25.335Z,26.26
2022-07-29T10:44:25.362Z,26.49
2022-07-29T10:45:25.396Z,26.22
2022-07-29T10:46:25.644Z,26.19
2022-07-29T10:47:25.562Z,26.23
2022-07-29T10:48:25.493Z,25.99
2022-07-29T10:49:25.600Z,25.69
2022-07-29T10:50:25.558Z,25.62
2022-07-29T10:51:25.593Z,25.75
2022-07-29T10:52:30.129Z,25.97
2022-07-29T10:53:25.708Z,25.93
2022-07-29T10:54:25.694Z,26.11
2022-07-29T10:55:25.733Z,26.24
2022-07-29T10:56:25.755Z,26.01
2022-07-29T10:57:54.079Z,26.01
2022-07-29T10:58:25.821Z,25.89
2022-07-29T10:59:25.855Z,25.91
2022-07-29T11:00:26.208Z,26.01
2022-07-29T11:01:37.110Z,26.06
2022-07-29T11:02:42.682Z,26.30
2022-07-29T11:03:26.253Z,26.22
2022-07-29T11:04:26.051Z,26.31
2022-07-29T11:05:32.310Z,26.49
2022-07-29T11:06:28.029Z,26.76
2022-07-29T11:07:26.119Z,26.91
2022-07-29T11:08:27.781Z,27.55
2022-07-29T11:09:35.317Z,27.69
2022-07-29T11:10:26.999Z,27.18
2022-07-29T11:11:29.840Z,26.94
2022-07-29T11:12:26.282Z,27.05
2022-07-29T11:13:26.314Z,27.12
2022-07-29T11:14:27.181Z,27.30
2022-07-29T11:15:28.593Z,27.84
2022-07-29T11:16:26.413Z,28.14
2022-07-29T11:17:26.451Z,28.24
2022-07-29T11:18:26.480Z,28.02
2022-07-29T11:19:30.438Z,27.80
2022-07-29T11:20:26.550Z,27.93
2022-07-29T11:21:26.582Z,28.08
2022-07-29T11:22:26.614Z,28.05
2022-07-29T11:23:26.652Z,28.33
2022-07-29T11:25:50.866Z,28.49
2022-07-29T11:26:26.750Z,28.36
2022-07-29T11:28:26.817Z,28.58
2022-07-29T11:29:26.853Z,28.64
2022-07-29T11:30:26.886Z,28.86
2022-07-29T11:31:26.920Z,29.01
2022-07-29T11:32:29.519Z,28.64
2022-07-29T11:33:52.264Z,28.45
2022-07-29T11:34:28.051Z,28.16
2022-07-29T11:35:38.087Z,27.98
2022-07-29T11:36:28.324Z,27.96
2022-07-29T11:37:27.615Z,27.99
2022-07-29T11:38:28.053Z,27.84
2022-07-29T11:39:27.190Z,27.89
2022-07-29T11:40:27.221Z,27.96
2022-07-29T11:41:27.571Z,27.65
2022-07-29T11:42:32.513Z,27.37
2022-07-29T11:43:27.325Z,27.41
2022-07-29T11:44:27.357Z,27.00
2022-07-29T11:45:43.984Z,27.00
2022-07-29T11:46:27.424Z,27.00
2022-07-29T11:47:27.460Z,27.16
2022-07-29T11:48:29.340Z,27.27
2022-07-29T11:49:32.476Z,27.18
2022-07-29T11:50:27.709Z,27.16
2022-07-29T11:51:32.721Z,27.26
2022-07-29T11:52:27.640Z,27.31
2022-07-29T11:53:29.035Z,27.23
2022-07-29T11:54:27.930Z,27.19
2022-07-29T11:55:32.245Z,27.30
2022-07-29T11:56:27.758Z,27.12
2022-07-29T11:57:36.006Z,26.97
2022-07-29T11:58:27.824Z,26.96
2022-07-29T11:59:33.024Z,27.08
2022-07-29T12:00:27.891Z,27.24
2022-07-29T12:01:27.928Z,27.00
2022-07-29T12:02:37.212Z,27.16
2022-07-29T12:04:28.023Z,26.76
2022-07-29T12:06:28.556Z,26.60
2022-07-29T12:07:01.183Z,28.55
2022-07-29T12:07:32.502Z,26.59
2022-07-29T12:08:28.154Z,26.60
2022-07-29T12:09:28.189Z,26.69
2022-07-29T12:10:30.038Z,26.71
2022-07-29T12:11:28.256Z,26.91
2022-07-29T12:12:28.286Z,27.00
2022-07-29T12:13:37.157Z,27.12
2022-07-29T12:14:28.353Z,27.23
2022-07-29T12:15:39.277Z,27.36
2022-07-29T12:16:29.799Z,27.24
2022-07-29T12:17:30.478Z,27.05
2022-07-29T12:18:28.484Z,26.89
2022-07-29T12:19:28.519Z,26.79
2022-07-29T12:20:28.548Z,26.79
2022-07-29T12:21:28.770Z,26.75
2022-07-29T12:22:28.614Z,26.76
2022-07-29T12:23:29.516Z,26.72
2022-07-29T12:24:28.692Z,26.72
2022-07-29T12:25:32.974Z,26.89
2022-07-29T12:26:28.746Z,26.76
2022-07-29T12:27:29.370Z,26.56
2022-07-29T12:28:28.860Z,26.44
2022-07-29T12:29:35.635Z,26.50
2022-07-29T12:30:28.875Z,26.53
2022-07-29T12:31:42.407Z,26.41
2022-07-29T12:32:28.972Z,26.30
2022-07-29T12:33:28.975Z,26.23
2022-07-29T12:34:29.005Z,26.12
2022-07-29T12:35:29.043Z,26.15
2022-07-29T12:36:29.069Z,26.06
2022-07-29T12:37:35.792Z,26.04
2022-07-29T12:38:29.136Z,26.03
2022-07-29T12:39:29.289Z,26.07
2022-07-29T12:40:29.200Z,26.20
2022-07-29T12:41:29.235Z,26.09
2022-07-29T12:42:29.267Z,26.23
2022-07-29T12:43:29.297Z,26.27
2022-07-29T12:44:29.328Z,26.37
2022-07-29T12:45:29.361Z,26.44
2022-07-29T12:46:29.443Z,26.59
2022-07-29T12:47:29.428Z,26.69
2022-07-29T12:48:29.457Z,26.81
2022-07-29T12:49:29.491Z,26.79
2022-07-29T12:50:29.522Z,26.89
2022-07-29T12:51:29.560Z,27.00
2022-07-29T12:52:29.587Z,27.18
2022-07-29T12:53:29.623Z,27.16
2022-07-29T12:54:29.665Z,27.15
2022-07-29T12:55:29.684Z,27.15
2022-07-29T12:56:42.386Z,27.09
2022-07-29T12:57:29.749Z,27.12
2022-07-29T12:58:29.781Z,27.42
2022-07-29T12:59:29.815Z,27.65
2022-07-29T13:00:29.868Z,27.87
2022-07-29T13:01:29.880Z,27.93
2022-07-29T13:02:29.957Z,27.80
2022-07-29T13:03:29.946Z,27.43
2022-07-29T13:04:29.983Z,27.45
2022-07-29T13:05:30.011Z,27.30
2022-07-29T13:06:30.041Z,27.26
2022-07-29T13:08:30.216Z,26.99
2022-07-29T13:09:30.139Z,27.01
2022-07-29T13:10:30.176Z,27.04
2022-07-29T13:11:30.207Z,26.96
2022-07-29T13:12:30.240Z,26.79
2022-07-29T13:13:30.270Z,26.71
2022-07-29T13:14:30.305Z,26.63
2022-07-29T13:15:30.336Z,26.52
2022-07-29T13:16:30.423Z,26.68
2022-07-29T13:17:32.687Z,26.97
2022-07-29T13:18:30.452Z,27.27
2022-07-29T13:19:30.466Z,27.37